Time;durP1;ratioP1;P1;durP2;ratioP2;P2;SDS_P1;SDS_P2;PMS_P1;PMS_P2;Temp;Humidity;BMP_temperature;BMP_pressure;BME280_temperature;BME280_humidity;BME280_pressure;Samples;Min_cycle;Max_cycle;Signal;HPM_P1;HPM_P2
2022/12/18 00:00:49;;;;;;;52.33;17.67;;;;;;;-5.52;100.00;102680.06;5056957;28;20491;-86
2022/12/18 00:03:17;;;;;;;50.40;16.77;;;;;;;-5.54;100.00;102687.22;5056993;28;20028;-87
2022/12/18 00:06:04;;;;;;;49.85;18.10;;;;;;;-5.55;100.00;102689.00;5057348;28;20104;-87
2022/12/18 00:08:33;;;;;;;44.63;17.52;;;;;;;-5.61;100.00;102689.25;5057411;28;20055;-86
2022/12/18 00:11:16;;;;;;;54.53;18.63;;;;;;;-5.64;100.00;102692.00;5057016;28;20040;-87
2022/12/18 00:13:45;;;;;;;52.15;18.83;;;;;;;-5.67;100.00;102692.16;5056973;28;20435;-87
2022/12/18 00:16:18;;;;;;;48.42;17.65;;;;;;;-5.69;100.00;102694.84;5056968;28;20131;-87
2022/12/18 00:18:46;;;;;;;53.30;18.35;;;;;;;-5.72;100.00;102688.84;5074958;28;20479;-87
2022/12/18 00:21:30;;;;;;;47.25;17.02;;;;;;;-5.75;100.00;102686.34;5056736;28;20109;-87
2022/12/18 00:23:57;;;;;;;49.87;17.67;;;;;;;-5.81;100.00;102680.38;5074534;28;20521;-87
2022/12/18 00:26:26;;;;;;;44.10;16.38;;;;;;;-5.79;100.00;102671.53;5074267;28;20739;-87
2022/12/18 00:29:02;;;;;;;43.25;16.60;;;;;;;-5.80;100.00;102654.81;5055721;28;20044;-87
2022/12/18 00:31:27;;;;;;;52.90;17.52;;;;;;;-5.81;100.00;102647.78;5056546;28;20024;-88
2022/12/18 00:34:05;;;;;;;52.17;16.40;;;;;;;-5.86;100.00;102648.00;5056339;28;20119;-87
2022/12/18 00:36:34;;;;;;;47.58;16.55;;;;;;;-5.86;100.00;102647.09;5056243;28;20477;-87
2022/12/18 00:39:04;;;;;;;49.35;17.25;;;;;;;-5.87;100.00;102648.06;5056438;28;20036;-87
2022/12/18 00:44:18;;;;;;;49.10;17.47;;;;;;;-5.87;100.00;102635.69;5074919;28;20089;-87
2022/12/18 00:46:46;;;;;;;46.03;16.98;;;;;;;-5.88;100.00;102636.59;5056674;28;20340;-87
2022/12/18 00:49:32;;;;;;;;;;;;;;;;;;;;;
2022/12/18 00:51:58;;;;;;;47.03;17.10;;;;;;;-5.90;100.00;102642.91;5074677;28;20032;-87
2022/12/18 00:54:26;;;;;;;50.93;17.53;;;;;;;-5.91;100.00;102646.44;5056984;28;20115;-88
2022/12/18 00:56:52;;;;;;;45.90;16.38;;;;;;;-5.92;100.00;102645.59;5056283;28;20028;-87
2022/12/18 00:59:18;;;;;;;48.20;16.42;;;;;;;-5.97;100.00;102641.47;5056291;28;20032;-87
2022/12/18 01:01:51;;;;;;;48.03;16.15;;;;;;;-5.95;100.00;102652.78;5056184;28;20460;-86
2022/12/18 01:04:16;;;;;;;49.50;17.20;;;;;;;-5.96;100.00;102654.56;5056527;28;20453;-86
2022/12/18 01:06:45;;;;;;;50.73;17.90;;;;;;;-5.94;100.00;102654.50;5055726;28;20055;-86
2022/12/18 01:09:18;;;;;;;45.42;17.13;;;;;;;-5.95;100.00;102650.13;5056250;28;20059;-87
2022/12/18 01:11:53;;;;;;;46.30;15.55;;;;;;;-5.99;100.00;102652.09;5038995;28;20036;-87
2022/12/18 01:14:18;;;;;;;44.00;16.23;;;;;;;-6.00;100.00;102667.06;5074132;28;20083;-87
2022/12/18 01:16:46;;;;;;;44.33;15.87;;;;;;;-6.01;100.00;102661.84;5055650;28;20044;-86
2022/12/18 01:19:11;;;;;;;45.40;15.93;;;;;;;-6.00;100.00;102671.50;5055481;28;20024;-87
2022/12/18 01:21:39;;;;;;;45.07;16.53;;;;;;;-6.02;100.00;102674.22;5055571;28;20020;-87
2022/12/18 01:24:07;;;;;;;45.35;16.13;;;;;;;-6.03;100.00;102671.63;5055787;28;20029;-87
2022/12/18 01:26:44;;;;;;;46.30;15.35;;;;;;;-6.03;100.00;102671.63;5055455;28;20377;-86
2022/12/18 01:29:10;;;;;;;44.33;16.67;;;;;;;-6.03;100.00;102675.13;5040197;28;20119;-87
2022/12/18 01:31:45;;;;;;;47.93;16.03;;;;;;;-6.03;100.00;102674.28;5056194;28;20135;-86
2022/12/18 01:34:23;;;;;;;;;;;;;;;;;;;;;
2022/12/18 01:36:51;;;;;;;42.65;14.88;;;;;;;-6.06;100.00;102661.19;5074223;28;20024;-87
2022/12/18 01:39:23;;;;;;;38.67;15.33;;;;;;;-6.07;100.00;102660.31;5055576;28;20032;-87
2022/12/18 01:42:04;;;;;;;38.53;14.93;;;;;;;-6.08;100.00;102657.75;5039750;28;20037;-87
2022/12/18 01:45:00;;;;;;;43.10;15.82;;;;;;;-6.06;100.00;102666.47;5055540;28;20108;-86
2022/12/18 01:47:55;;;;;;;38.90;14.80;;;;;;;-6.09;100.00;102663.97;5055236;28;20380;-87
2022/12/18 01:50:35;;;;;;;39.45;14.20;;;;;;;-6.12;100.00;102661.44;5055434;28;20472;-87
2022/12/18 01:53:21;;;;;;;;;;;;;;;;;;;;;
2022/12/18 01:55:52;;;;;;;38.97;14.20;;;;;;;-6.14;100.00;102660.63;5074607;28;20028;-87
2022/12/18 01:58:19;;;;;;;37.35;14.98;;;;;;;-6.13;100.00;102662.38;5055148;28;20396;-87
2022/12/18 02:00:48;;;;;;;41.40;14.98;;;;;;;-6.16;100.00;102660.69;5055504;28;20063;-86
2022/12/18 02:03:23;;;;;;;44.53;14.52;;;;;;;-6.16;100.00;102652.78;5055689;28;20025;-86
2022/12/18 02:06:23;;;;;;;;;;;;;;;;;;;;;
2022/12/18 02:09:09;;;;;;;41.00;14.70;;;;;;;-6.18;100.00;102652.00;5073479;28;20107;-86
2022/12/18 02:11:38;;;;;;;37.47;13.15;;;;;;;-6.20;100.00;102644.13;5072562;28;20044;-86
2022/12/18 02:14:23;;;;;;;31.52;13.55;;;;;;;-6.20;100.00;102651.16;5055100;28;20072;-87
2022/12/18 02:17:07;;;;;;;32.75;13.38;;;;;;;-6.21;100.00;102652.13;5072982;28;20059;-87
2022/12/18 02:20:13;;;;;;;37.30;13.63;;;;;;;-6.23;100.00;102640.72;5073002;28;20494;-87
2022/12/18 02:23:22;;;;;;;35.20;12.75;;;;;;;-6.22;100.00;102650.38;5073728;28;20142;-87
2022/12/18 02:26:09;;;;;;;36.28;13.50;;;;;;;-6.24;100.00;102644.31;5054796;28;20043;-87
2022/12/18 02:28:51;;;;;;;38.30;14.15;;;;;;;-6.27;100.00;102647.09;5054949;28;20072;-87
2022/12/18 02:31:29;;;;;;;36.40;13.90;;;;;;;-6.30;100.00;102645.41;5055889;28;20035;-86
2022/12/18 02:34:00;;;;;;;35.03;12.83;;;;;;;-6.33;100.00;102642.91;5055949;28;20105;-87
2022/12/18 02:36:33;;;;;;;32.45;12.02;;;;;;;-6.34;100.00;102630.59;5054813;28;20473;-87
2022/12/18 02:39:01;;;;;;;39.55;13.68;;;;;;;-6.33;100.00;102640.25;5054803;28;20025;-87
2022/12/18 02:41:36;;;;;;;34.38;13.55;;;;;;;-6.33;100.00;102634.97;5054779;28;20070;-87
2022/12/18 02:44:09;;;;;;;36.72;13.70;;;;;;;-6.35;100.00;102632.41;5054590;28;20078;-87
2022/12/18 02:46:39;;;;;;;41.33;14.20;;;;;;;-6.33;100.00;102634.97;5057950;28;20016;-86
2022/12/18 02:49:40;;;;;;;37.13;13.93;;;;;;;-6.30;100.00;102626.91;5058967;28;20068;-87
2022/12/18 02:52:30;;;;;;;37.45;13.27;;;;;;;-6.30;100.00;102623.41;5058624;28;20036;-86
2022/12/18 02:55:33;;;;;;;32.80;12.55;;;;;;;-6.29;100.00;102618.06;5058258;28;20503;-87
2022/12/18 02:58:15;;;;;;;33.92;12.60;;;;;;;-6.31;100.00;102614.63;5076186;28;20033;-87
2022/12/18 03:00:52;;;;;;;35.97;12.07;;;;;;;-6.33;100.00;102620.88;5058733;28;20020;-87
2022/12/18 03:03:32;;;;;;;32.83;11.35;;;;;;;-6.38;100.00;102615.78;5059381;28;20039;-87
2022/12/18 03:06:14;;;;;;;35.35;12.90;;;;;;;-6.38;100.00;102615.78;5058194;28;20090;-87
2022/12/18 03:08:47;;;;;;;31.27;12.13;;;;;;;-6.40;100.00;102615.00;5057993;28;20064;-87
2022/12/18 03:11:14;;;;;;;31.77;11.70;;;;;;;-6.42;100.00;102606.25;5058866;28;20056;-87
2022/12/18 03:13:56;;;;;;;31.67;12.83;;;;;;;-6.40;100.00;102601.78;5057899;28;20437;-87
2022/12/18 03:16:28;;;;;;;29.48;12.43;;;;;;;-6.41;100.00;102603.56;5058313;28;20025;-87
2022/12/18 03:19:11;;;;;;;35.42;12.60;;;;;;;-6.42;100.00;102598.34;5057701;28;20115;-87
2022/12/18 03:21:42;;;;;;;34.75;11.88;;;;;;;-6.47;100.00;102595.88;5058048;28;20029;-87
2022/12/18 03:24:09;;;;;;;29.00;11.02;;;;;;;-6.47;100.00;102598.53;5057730;28;20115;-87
2022/12/18 03:26:46;;;;;;;29.20;11.60;;;;;;;-6.47;100.00;102598.53;5057637;28;20024;-87
2022/12/18 03:29:41;;;;;;;28.00;11.73;;;;;;;-6.48;100.00;102598.59;5057858;28;20036;-87
2022/12/18 03:32:28;;;;;;;28.40;11.02;;;;;;;-6.52;100.00;102600.50;5075651;28;20029;-86
2022/12/18 03:35:02;;;;;;;29.83;11.40;;;;;;;-6.56;100.00;102605.03;5057646;28;20071;-87
2022/12/18 03:37:28;;;;;;;30.90;12.15;;;;;;;-6.56;100.00;102607.69;5058062;28;20150;-88
2022/12/18 03:40:03;;;;;;;33.17;11.50;;;;;;;-6.58;100.00;102604.25;5057460;28;20044;-87
2022/12/18 03:43:02;;;;;;;26.55;11.07;;;;;;;-6.60;100.00;102611.38;5058067;28;20020;-87
2022/12/18 03:45:46;;;;;;;;;;;;;;;;;;;;;
2022/12/18 03:48:35;;;;;;;30.23;11.03;;;;;;;-6.61;100.00;102604.38;5076747;28;20103;-87
2022/12/18 03:51:25;;;;;;;33.92;11.35;;;;;;;-6.63;100.00;102606.19;5057249;28;20028;-87
2022/12/18 03:54:09;;;;;;;;;;;;;;;;;;;;;
2022/12/18 03:56:46;;;;;;;30.42;11.52;;;;;;;-6.69;100.00;102585.31;5074549;28;20032;-87
2022/12/18 03:59:18;;;;;;;32.88;11.38;;;;;;;-6.70;100.00;102578.34;5058275;28;20085;-87
2022/12/18 04:01:51;;;;;;;28.40;11.13;;;;;;;-6.68;100.00;102576.50;5057247;28;20111;-87
2022/12/18 04:04:21;;;;;;;28.50;11.43;;;;;;;-6.66;100.00;102563.22;5057952;28;20029;-87
2022/12/18 04:06:56;;;;;;;34.13;11.90;;;;;;;-6.69;100.00;102561.56;5057099;28;20111;-86
2022/12/18 04:09:25;;;;;;;26.55;10.85;;;;;;;-6.70;100.00;102557.22;5075020;28;20468;-87
2022/12/18 04:11:54;;;;;;;24.95;10.93;;;;;;;-6.72;100.00;102559.91;5057390;28;20024;-86
2022/12/18 04:14:27;;;;;;;27.30;10.53;;;;;;;-6.73;100.00;102557.31;5075542;28;20032;-87
2022/12/18 04:16:53;;;;;;;25.23;10.10;;;;;;;-6.75;100.00;102551.25;5040736;28;20040;-87
2022/12/18 04:19:21;;;;;;;24.93;10.83;;;;;;;-6.76;100.00;102546.88;5056546;28;20029;-86
2022/12/18 04:22:01;;;;;;;;;;;;;;;;;;;;;
2022/12/18 04:24:27;;;;;;;26.05;10.43;;;;;;;-6.79;100.00;102536.44;5059209;28;20029;-87
2022/12/18 04:26:53;;;;;;;24.43;10.03;;;;;;;-6.79;100.00;102547.88;5057134;28;20123;-87
2022/12/18 04:29:19;;;;;;;29.33;10.88;;;;;;;-6.81;100.00;102554.13;5056014;28;20420;-87
2022/12/18 04:31:47;;;;;;;30.20;11.05;;;;;;;-6.83;100.00;102558.63;5056284;28;20029;-86
2022/12/18 04:34:15;;;;;;;29.02;10.77;;;;;;;-6.85;100.00;102561.28;5039724;28;20468;-87
2022/12/18 04:36:45;;;;;;;27.60;11.20;;;;;;;-6.82;100.00;102562.97;5056632;28;20033;-86
2022/12/18 04:39:16;;;;;;;27.10;11.65;;;;;;;-6.84;100.00;102565.66;5056720;28;20059;-87
2022/12/18 04:41:44;;;;;;;25.52;11.23;;;;;;;-6.81;100.00;102568.19;5039570;28;20070;-86
2022/12/18 04:44:23;;;;;;;;;;;;;;;;;;;;;
2022/12/18 04:47:04;;;;;;;30.17;11.38;;;;;;;-6.78;100.00;102569.84;5074217;28;20346;-87
2022/12/18 04:49:40;;;;;;;27.00;10.98;;;;;;;-6.79;100.00;102583.97;5040717;28;20056;-87
2022/12/18 04:52:17;;;;;;;29.10;11.65;;;;;;;-6.81;100.00;102596.38;5025223;28;20032;-87
2022/12/18 04:54:45;;;;;;;25.83;10.52;;;;;;;-6.84;100.00;102592.06;5056646;28;20135;-88
2022/12/18 04:57:13;;;;;;;25.57;10.93;;;;;;;-6.83;100.00;102591.16;5038978;28;20041;-87
2022/12/18 05:00:02;;;;;;;28.73;10.38;;;;;;;-6.83;100.00;102591.16;5055830;28;20275;-87
2022/12/18 05:02:35;;;;;;;28.77;10.98;;;;;;;-6.81;100.00;102591.09;5056967;28;20040;-87
2022/12/18 05:05:03;;;;;;;24.13;9.80;;;;;;;-6.81;100.00;102583.16;5055687;28;20060;-87
2022/12/18 05:07:42;;;;;;;29.55;10.35;;;;;;;-6.83;100.00;102580.59;5040323;28;20103;-87
2022/12/18 05:10:12;;;;;;;22.60;9.57;;;;;;;-6.83;100.00;102587.66;5055689;28;20110;-87
2022/12/18 05:12:58;;;;;;;25.42;9.77;;;;;;;-6.83;100.00;102592.94;5055736;28;20318;-87
2022/12/18 05:15:58;;;;;;;24.92;10.15;;;;;;;-6.81;100.00;102601.66;5073975;28;20131;-87
2022/12/18 05:18:26;;;;;;;24.27;10.15;;;;;;;-6.81;100.00;102596.38;5056276;28;20060;-87
2022/12/18 05:20:58;;;;;;;25.80;9.93;;;;;;;-6.82;100.00;102581.44;5055765;28;20119;-87
2022/12/18 05:23:24;;;;;;;25.37;10.23;;;;;;;-6.80;100.00;102585.75;5039169;28;20038;-87
2022/12/18 05:26:07;;;;;;;21.63;9.55;;;;;;;-6.80;100.00;102583.09;5073719;28;20363;-87
2022/12/18 05:28:38;;;;;;;22.77;8.77;;;;;;;-6.79;100.00;102591.88;5039713;28;20036;-87
2022/12/18 05:31:09;;;;;;;23.42;9.98;;;;;;;-6.80;100.00;102583.09;5038913;28;20490;-87
2022/12/18 05:33:44;;;;;;;23.52;9.00;;;;;;;-6.78;100.00;102585.69;5055810;28;20036;-87
2022/12/18 05:36:15;;;;;;;21.40;9.27;;;;;;;-6.76;100.00;102589.13;5040139;28;20044;-87
2022/12/18 05:38:44;;;;;;;24.27;9.75;;;;;;;-6.76;100.00;102587.34;5073602;28;20338;-87
2022/12/18 05:41:12;;;;;;;24.50;9.07;;;;;;;-6.79;100.00;102578.69;5055656;28;20040;-87
2022/12/18 05:43:45;;;;;;;26.42;10.35;;;;;;;-6.80;100.00;102567.28;5055374;28;20381;-87
2022/12/18 05:46:19;;;;;;;24.30;9.88;;;;;;;-6.80;100.00;102567.28;5055924;28;20052;-87
2022/12/18 05:48:48;;;;;;;24.07;9.00;;;;;;;-6.83;100.00;102570.03;5073382;28;20060;-87
2022/12/18 05:51:19;;;;;;;29.23;9.20;;;;;;;-6.85;100.00;102563.09;5055186;28;20283;-87
2022/12/18 05:53:48;;;;;;;21.88;9.60;;;;;;;-6.86;100.00;102570.16;5055387;28;20040;-88
2022/12/18 05:56:16;;;;;;;20.35;9.25;;;;;;;-6.86;100.00;102564.88;5055659;28;20066;-87
2022/12/18 05:58:43;;;;;;;25.42;9.48;;;;;;;-6.89;100.00;102557.09;5073542;28;20035;-87
2022/12/18 06:01:15;;;;;;;23.30;8.77;;;;;;;-6.90;100.00;102564.13;5055771;28;20024;-88
2022/12/18 06:03:43;;;;;;;22.27;9.23;;;;;;;-6.93;100.00;102571.31;5055675;28;20275;-87
2022/12/18 06:06:22;;;;;;;26.30;10.23;;;;;;;-6.93;100.00;102560.75;5055458;28;20131;-87
2022/12/18 06:08:50;;;;;;;24.48;9.23;;;;;;;-6.94;100.00;102557.25;5055355;28;20024;-87
2022/12/18 06:11:21;;;;;;;24.88;9.18;;;;;;;-6.95;100.00;102560.81;5038796;28;20052;-87
2022/12/18 06:13:55;;;;;;;23.63;9.23;;;;;;;-6.95;100.00;102560.81;5054942;28;20031;-86
2022/12/18 06:16:26;;;;;;;23.13;8.90;;;;;;;-6.96;100.00;102572.28;5073025;28;20313;-86
2022/12/18 06:18:53;;;;;;;26.83;9.07;;;;;;;-6.98;100.00;102567.97;5056074;28;20036;-87
2022/12/18 06:21:21;;;;;;;24.80;9.13;;;;;;;-6.99;100.00;102579.47;5057185;28;20032;-87
2022/12/18 06:23:49;;;;;;;22.23;9.18;;;;;;;-7.00;100.00;102567.19;5042076;28;20408;-88
2022/12/18 06:26:15;;;;;;;23.70;9.67;;;;;;;-6.99;100.00;102575.03;5058737;28;20125;-87
2022/12/18 06:28:43;;;;;;;22.10;9.20;;;;;;;-6.98;100.00;102573.25;5076781;28;20310;-87
2022/12/18 06:31:12;;;;;;;20.17;8.75;;;;;;;-7.02;100.00;102572.53;5058923;28;20028;-87
2022/12/18 06:33:46;;;;;;;24.73;8.77;;;;;;;-7.03;100.00;102569.94;5058543;28;20021;-87
2022/12/18 06:36:20;;;;;;;23.23;8.65;;;;;;;-7.01;100.00;102573.38;5057346;28;20045;-87
2022/12/18 06:38:51;;;;;;;22.17;9.10;;;;;;;-7.02;100.00;102569.88;5042220;28;20048;-87
2022/12/18 06:41:20;;;;;;;21.88;8.82;;;;;;;-7.01;100.00;102557.53;5058951;28;20032;-87
2022/12/18 06:43:46;;;;;;;21.40;8.82;;;;;;;-7.05;100.00;102555.03;5076601;28;20436;-87
2022/12/18 06:46:15;;;;;;;25.70;8.43;;;;;;;-7.08;100.00;102549.00;5059090;28;20039;-87
2022/12/18 06:48:49;;;;;;;26.43;8.97;;;;;;;-7.08;100.00;102552.50;5042062;28;20139;-87
2022/12/18 06:51:28;;;;;;;23.77;9.85;;;;;;;-7.08;100.00;102549.00;5059866;28;20298;-88
2022/12/18 06:54:00;;;;;;;21.92;9.00;;;;;;;-7.09;100.00;102540.22;5058003;28;20481;-85
2022/12/18 06:56:31;;;;;;;22.10;9.02;;;;;;;-7.06;100.00;102539.25;5058687;28;20036;-88
2022/12/18 06:59:08;;;;;;;25.15;9.75;;;;;;;-7.05;100.00;102554.16;5060752;28;20090;-89
2022/12/18 07:02:02;;;;;;;23.23;8.80;;;;;;;-7.10;100.00;102557.00;5059118;28;20032;-90
2022/12/18 07:04:32;;;;;;;21.88;9.10;;;;;;;-7.10;100.00;102549.06;5062256;28;20329;-91
2022/12/18 07:07:05;;;;;;;26.25;9.57;;;;;;;-7.10;100.00;102545.56;5077204;28;20056;-90
2022/12/18 07:09:37;;;;;;;26.95;9.63;;;;;;;-7.09;100.00;102542.84;5058722;28;20059;-87
2022/12/18 07:12:04;;;;;;;23.10;9.70;;;;;;;-7.10;100.00;102535.00;5041958;28;20041;-86
2022/12/18 07:14:36;;;;;;;25.87;9.47;;;;;;;-7.11;100.00;102525.38;5058481;28;20036;-87
2022/12/18 07:17:04;;;;;;;22.70;8.57;;;;;;;-7.13;100.00;102524.56;5042246;28;20283;-87
2022/12/18 07:19:33;;;;;;;27.15;9.60;;;;;;;-7.13;100.00;102517.53;5058257;28;20040;-86
2022/12/18 07:21:58;;;;;;;26.23;9.90;;;;;;;-7.12;100.00;102505.19;5057960;28;20032;-85
2022/12/18 07:24:24;;;;;;;24.97;9.67;;;;;;;-7.12;100.00;102500.75;5041978;28;20437;-85
2022/12/18 07:26:52;;;;;;;20.65;9.23;;;;;;;-7.13;100.00;102491.16;5041049;28;20032;-85
2022/12/18 07:29:23;;;;;;;26.27;9.43;;;;;;;-7.11;100.00;102489.31;5058302;28;20071;-85
2022/12/18 07:31:53;;;;;;;26.40;9.50;;;;;;;-7.11;100.00;102481.38;5041905;28;20032;-85
2022/12/18 07:34:24;;;;;;;22.42;9.70;;;;;;;-7.08;100.00;102475.97;5057543;28;20025;-85
2022/12/18 07:36:59;;;;;;;22.27;9.27;;;;;;;-7.05;100.00;102481.13;5041175;28;20040;-85
2022/12/18 07:39:33;;;;;;;27.80;10.40;;;;;;;-7.00;100.00;102486.22;5057512;28;20476;-88
2022/12/18 07:45:14;;;;;;;25.02;9.98;;;;;;;-6.92;100.00;102467.47;5060509;28;20458;-86
2022/12/18 07:47:41;;;;;;;23.85;9.82;;;;;;;-6.91;100.00;102456.84;5075389;28;20104;-86
2022/12/18 07:50:07;;;;;;;21.02;9.10;;;;;;;-6.86;100.00;102448.75;5075125;28;20368;-85
2022/12/18 07:52:35;;;;;;;24.90;9.60;;;;;;;-6.83;100.00;102448.63;5057017;28;20059;-86
2022/12/18 07:55:27;;;;;;;26.70;9.83;;;;;;;-6.80;100.00;102445.00;5040341;28;20041;-86
2022/12/18 07:57:56;;;;;;;22.95;9.30;;;;;;;-6.76;100.00;102446.56;5074970;28;20039;-85
2022/12/18 08:00:26;;;;;;;24.75;9.98;;;;;;;-6.73;100.00;102433.22;5057487;28;20029;-86
2022/12/18 08:02:54;;;;;;;24.48;9.52;;;;;;;-6.68;100.00;102439.19;5025024;28;20361;-85
2022/12/18 08:05:20;;;;;;;23.45;10.15;;;;;;;-6.65;100.00;102441.69;5074730;28;20036;-86
2022/12/18 08:07:53;;;;;;;22.57;9.23;;;;;;;-6.60;100.00;102452.06;5056836;28;20024;-86
2022/12/18 08:10:22;;;;;;;26.23;10.50;;;;;;;-6.51;100.00;102462.22;5074727;28;20044;-85
2022/12/18 08:12:51;;;;;;;25.10;10.38;;;;;;;-6.48;100.00;102453.34;5041039;28;20033;-86
2022/12/18 08:15:20;;;;;;;24.08;9.88;;;;;;;-6.41;100.00;102454.78;5057454;28;20028;-86
2022/12/18 08:17:45;;;;;;;30.63;9.97;;;;;;;-6.37;100.00;102449.31;5056594;28;20037;-85
2022/12/18 08:20:14;;;;;;;21.70;9.88;;;;;;;-6.28;100.00;102457.78;5056776;28;20282;-86
2022/12/18 08:22:45;;;;;;;23.30;10.27;;;;;;;-6.24;100.00;102460.22;5057463;28;20059;-87
2022/12/18 08:25:18;;;;;;;28.27;10.17;;;;;;;-6.18;100.00;102459.09;5023637;28;20029;-86
2022/12/18 08:27:44;;;;;;;25.70;9.38;;;;;;;-6.09;100.00;102460.47;5057093;28;20035;-85
2022/12/18 08:30:10;;;;;;;24.98;10.20;;;;;;;-6.03;99.94;102453.13;5056842;28;20033;-86
2022/12/18 08:32:41;;;;;;;23.83;9.23;;;;;;;-5.96;100.00;102452.81;5054911;28;20036;-85
2022/12/18 08:35:11;;;;;;;29.42;10.50;;;;;;;-5.89;100.00;102455.13;5056401;28;20033;-85
2022/12/18 08:37:42;;;;;;;27.13;10.85;;;;;;;-5.82;100.00;102458.34;5024108;28;20044;-85
2022/12/18 08:40:18;;;;;;;;;;;;;;;;;;;;;
2022/12/18 08:45:28;;;;;;;24.13;9.67;;;;;;;-5.56;98.82;102438.63;5074653;28;20121;-85
2022/12/18 08:47:54;;;;;;;24.88;9.88;;;;;;;-5.49;99.10;102432.13;5056146;28;20077;-85
2022/12/18 08:50:20;;;;;;;27.07;11.67;;;;;;;-5.41;99.05;102426.47;5056034;28;20593;-86
2022/12/18 08:52:45;;;;;;;28.20;10.75;;;;;;;-5.28;98.06;102426.75;5073883;28;20029;-87
2022/12/18 08:55:11;;;;;;;24.57;10.00;;;;;;;-5.18;98.02;102432.44;5056353;28;20107;-89
2022/12/18 08:57:42;;;;;;;28.20;10.27;;;;;;;-5.09;98.15;102433.81;5074201;28;20115;-86
2022/12/18 09:00:10;;;;;;;26.63;11.38;;;;;;;-4.97;97.77;102430.56;5056016;28;20047;-88
2022/12/18 09:02:38;;;;;;;27.37;10.10;;;;;;;-4.85;96.99;102421.16;5056179;28;20037;-85
2022/12/18 09:05:13;;;;;;;27.13;10.75;;;;;;;-4.73;96.92;102423.19;5040519;28;20032;-86
2022/12/18 09:07:44;;;;;;;24.58;10.10;;;;;;;-4.66;96.64;102414.00;5039076;28;20024;-87
2022/12/18 09:10:12;;;;;;;28.75;10.88;;;;;;;-4.54;96.79;102433.72;5055912;28;20052;-88
2022/12/18 09:12:40;;;;;;;24.77;10.65;;;;;;;-4.41;95.80;102452.50;5039862;28;20127;-86
2022/12/18 09:15:06;;;;;;;25.23;10.10;;;;;;;-4.35;94.92;102443.38;5039715;28;20117;-86
2022/12/18 09:17:32;;;;;;;25.83;11.40;;;;;;;-4.29;95.18;102456.31;5055534;28;20119;-86
2022/12/18 09:20:06;;;;;;;28.43;11.23;;;;;;;-4.20;93.80;102450.53;5055599;28;20469;-87
2022/12/18 09:22:45;;;;;;;25.63;10.38;;;;;;;-4.10;94.02;102453.56;5055580;28;20127;-87
2022/12/18 09:25:16;;;;;;;22.75;9.77;;;;;;;-3.96;93.87;102450.19;5073855;28;20033;-88
2022/12/18 09:27:47;;;;;;;22.70;10.15;;;;;;;-3.86;93.40;102453.22;5055782;28;20032;-88
2022/12/18 09:30:18;;;;;;;22.50;9.70;;;;;;;-3.76;92.74;102447.31;5055103;28;20575;-87
2022/12/18 09:32:45;;;;;;;20.88;9.70;;;;;;;-3.66;92.80;102430.91;5055183;28;20336;-87
2022/12/18 09:35:13;;;;;;;23.25;10.43;;;;;;;-3.58;91.99;102423.38;5039261;28;20033;-87
2022/12/18 09:37:46;;;;;;;24.80;10.38;;;;;;;-3.48;91.57;102415.75;5055634;28;20494;-87
2022/12/18 09:40:20;;;;;;;23.45;10.52;;;;;;;-3.38;90.93;102417.84;5055816;28;20070;-88
2022/12/18 09:43:04;;;;;;;24.27;11.00;;;;;;;-3.26;90.39;102416.28;5055761;28;20040;-87
2022/12/18 09:45:50;;;;;;;25.88;10.43;;;;;;;-3.14;90.34;102421.81;5055896;28;20283;-87
2022/12/18 09:48:25;;;;;;;25.05;10.23;;;;;;;-3.02;89.77;102410.53;5056008;28;20024;-87
2022/12/18 09:50:55;;;;;;;24.75;9.98;;;;;;;-2.89;89.36;102402.72;5055156;28;20064;-88
2022/12/18 09:53:26;;;;;;;26.70;10.57;;;;;;;-2.78;89.11;102388.78;5056402;28;20034;-87
2022/12/18 09:55:56;;;;;;;25.43;10.47;;;;;;;-2.69;88.68;102378.47;5059261;28;20031;-87
2022/12/18 09:59:02;;;;;;;27.90;11.13;;;;;;;-2.55;89.40;102393.59;5059477;28;20357;-87
2022/12/18 10:01:34;;;;;;;27.88;9.95;;;;;;;-2.50;87.95;102390.66;5036915;28;20036;-87
2022/12/18 10:04:04;;;;;;;23.65;10.20;;;;;;;-2.45;86.66;102398.34;5043261;28;20127;-88
2022/12/18 10:07:40;;;;;;;22.25;9.82;;;;;;;-2.29;87.81;102388.50;5059772;28;20093;-88
2022/12/18 10:13:18;;;;;;;20.60;9.43;;;;;;;-2.03;86.35;102399.34;4999937;28;20268;-87
2022/12/18 10:15:59;;;;;;;21.73;9.73;;;;;;;-1.92;86.04;102398.69;5039317;28;20061;-86
2022/12/18 10:18:46;;;;;;;26.45;10.48;;;;;;;-1.83;84.91;102393.66;5039194;28;20029;-86
2022/12/18 10:21:20;;;;;;;20.75;9.90;;;;;;;-1.77;84.96;102403.91;5039538;28;20120;-86
2022/12/18 10:24:06;;;;;;;26.60;10.70;;;;;;;-1.61;84.65;102398.47;5039277;28;20033;-86
2022/12/18 10:26:32;;;;;;;23.67;10.32;;;;;;;-1.51;83.70;102392.53;5039423;28;20271;-86
2022/12/18 10:29:06;;;;;;;21.23;9.95;;;;;;;-1.41;83.54;102385.69;5038411;28;20025;-85
2022/12/18 10:31:34;;;;;;;27.35;11.32;;;;;;;-1.31;83.13;102373.47;5056610;28;20077;-86
2022/12/18 10:34:00;;;;;;;25.10;10.45;;;;;;;-1.20;82.69;102372.75;5022695;28;20036;-87
2022/12/18 10:36:25;;;;;;;23.30;10.50;;;;;;;-1.14;82.92;102352.84;5038584;28;20036;-86
2022/12/18 10:38:54;;;;;;;26.77;10.43;;;;;;;-1.10;82.04;102347.22;5005694;28;20091;-86
2022/12/18 10:41:26;;;;;;;24.30;10.63;;;;;;;-1.02;81.74;102353.84;5039566;28;20036;-86
2022/12/18 10:44:30;;;;;;;21.10;10.60;;;;;;;-0.94;81.97;102338.22;5057503;28;20029;-86
2022/12/18 10:47:21;;;;;;;;;;;;;;;;;;;;;
2022/12/18 10:49:56;;;;;;;25.00;10.93;;;;;;;-0.81;80.86;102343.56;5057148;28;20025;-86
2022/12/18 10:52:24;;;;;;;22.55;10.13;;;;;;;-0.76;80.24;102342.28;5023057;28;20060;-85
2022/12/18 10:55:03;;;;;;;22.10;9.90;;;;;;;-0.72;80.76;102335.78;5038366;28;20037;-86
2022/12/18 10:57:41;;;;;;;22.55;10.35;;;;;;;-0.67;80.39;102319.47;5038413;28;20415;-86
2022/12/18 11:00:21;;;;;;;21.80;9.98;;;;;;;-0.59;80.59;102318.94;5037695;28;20045;-86
2022/12/18 11:02:49;;;;;;;21.10;9.52;;;;;;;-0.60;80.16;102319.94;5037728;28;20029;-86
2022/12/18 11:05:39;;;;;;;21.27;10.68;;;;;;;-0.56;80.35;102308.06;5038296;28;20473;-86
2022/12/18 11:08:23;;;;;;;20.60;9.80;;;;;;;-0.56;80.39;102314.28;5037740;28;20048;-87
2022/12/18 11:10:54;;;;;;;21.13;9.85;;;;;;;-0.57;79.67;102314.38;5050324;28;20400;-86
2022/12/18 11:13:32;;;;;;;22.05;9.80;;;;;;;-0.56;79.35;102316.94;5041165;28;20044;-86
2022/12/18 11:16:10;;;;;;;20.45;9.90;;;;;;;-0.56;78.67;102322.28;5058114;28;20055;-86
2022/12/18 11:18:38;;;;;;;19.02;9.75;;;;;;;-0.51;79.41;102319.28;5043013;28;20028;-86
2022/12/18 11:21:19;;;;;;;20.40;10.40;;;;;;;-0.42;79.94;102318.63;5057887;28;20123;-86
2022/12/18 11:23:56;;;;;;;21.63;10.48;;;;;;;-0.36;79.49;102298.69;5057940;28;20055;-86
2022/12/18 11:26:36;;;;;;;20.58;9.80;;;;;;;-0.29;79.98;102286.63;5057594;28;20111;-86
2022/12/18 11:29:17;;;;;;;21.80;9.57;;;;;;;-0.23;79.69;102296.00;5057723;28;20040;-86
2022/12/18 11:31:43;;;;;;;22.40;9.73;;;;;;;-0.21;78.60;102288.72;5075652;28;20032;-86
2022/12/18 11:34:28;;;;;;;24.07;10.73;;;;;;;-0.19;78.64;102286.84;5057759;28;20487;-85
2022/12/18 11:37:02;;;;;;;25.55;10.02;;;;;;;-0.20;77.93;102293.97;5058002;28;20500;-84
2022/12/18 11:39:40;;;;;;;21.17;9.57;;;;;;;-0.14;78.34;102287.34;5057404;28;20035;-84
2022/12/18 11:42:17;;;;;;;25.87;11.03;;;;;;;-0.09;78.77;102290.53;5057464;28;20031;-84
2022/12/18 11:45:18;;;;;;;20.02;9.40;;;;;;;0.04;78.18;102295.84;5075606;28;20032;-84
2022/12/18 11:47:55;;;;;;;21.17;9.93;;;;;;;0.09;77.51;102293.69;5074940;28;20071;-84
2022/12/18 11:50:30;;;;;;;20.92;9.93;;;;;;;0.09;77.40;102285.69;5057267;28;20110;-84
2022/12/18 11:52:58;;;;;;;21.05;9.85;;;;;;;0.14;77.15;102280.00;5057185;28;20020;-84
2022/12/18 11:55:41;;;;;;;18.77;9.33;;;;;;;0.25;77.66;102269.41;5057270;28;20024;-84
2022/12/18 11:58:22;;;;;;;21.08;9.73;;;;;;;0.28;76.94;102265.63;5057566;28;20119;-84
2022/12/18 12:01:00;;;;;;;22.30;10.63;;;;;;;0.32;76.97;102261.78;5057456;28;20089;-84
2022/12/18 12:03:46;;;;;;;19.25;9.13;;;;;;;0.34;77.12;102260.72;5056829;28;20024;-84